sensor_id;sensor_type;location;lat;lon;timestamp;pressure;altitude;pressure_sealevel;temperature;humidity
71165;BME280;58859;55.132;-1.586;2024-02-21T00:00:42;101030.53;;;10.21;100.00
71165;BME280;58859;55.132;-1.586;2024-02-21T00:03:08;101041.81;;;10.11;100.00
71165;BME280;58859;55.132;-1.586;2024-02-21T00:05:33;101042.88;;;9.70;100.00
71165;BME280;58859;55.132;-1.586;2024-02-21T00:07:59;101023.81;;;9.50;100.00
71165;BME280;58859;55.132;-1.586;2024-02-21T00:10:25;101032.53;;;9.99;100.00
71165;BME280;58859;55.132;-1.586;2024-02-21T00:12:51;101032.63;;;9.78;100.00
71165;BME280;58859;55.132;-1.586;2024-02-21T00:15:17;101048.84;;;10.20;100.00
71165;BME280;58859;55.132;-1.586;2024-02-21T00:17:44;101035.56;;;10.23;100.00
71165;BME280;58859;55.132;-1.586;2024-02-21T00:20:09;101017.19;;;10.72;100.00
71165;BME280;58859;55.132;-1.586;2024-02-21T00:22:35;101026.28;;;10.30;100.00
71165;BME280;58859;55.132;-1.586;2024-02-21T00:25:01;101033.94;;;9.53;100.00
71165;BME280;58859;55.132;-1.586;2024-02-21T00:27:26;101032.38;;;10.00;100.00
71165;BME280;58859;55.132;-1.586;2024-02-21T00:29:52;101012.41;;;9.91;100.00
71165;BME280;58859;55.132;-1.586;2024-02-21T00:32:17;101027.97;;;9.32;100.00
71165;BME280;58859;55.132;-1.586;2024-02-21T00:34:43;101030.53;;;9.53;100.00
71165;BME280;58859;55.132;-1.586;2024-02-21T00:37:09;101005.66;;;9.60;100.00
71165;BME280;58859;55.132;-1.586;2024-02-21T00:39:34;101002.66;;;9.74;100.00
71165;BME280;58859;55.132;-1.586;2024-02-21T00:41:59;100976.31;;;9.88;100.00
71165;BME280;58859;55.132;-1.586;2024-02-21T00:44:25;100966.34;;;9.93;100.00
71165;BME280;58859;55.132;-1.586;2024-02-21T00:46:50;100975.44;;;9.49;100.00
71165;BME280;58859;55.132;-1.586;2024-02-21T00:49:17;100987.19;;;9.44;100.00
71165;BME280;58859;55.132;-1.586;2024-02-21T00:51:43;100953.63;;;9.90;100.00
71165;BME280;58859;55.132;-1.586;2024-02-21T00:54:08;100948.28;;;9.72;100.00
71165;BME280;58859;55.132;-1.586;2024-02-21T00:56:34;100979.38;;;9.44;100.00
71165;BME280;58859;55.132;-1.586;2024-02-21T00:58:59;100967.81;;;9.76;100.00
71165;BME280;58859;55.132;-1.586;2024-02-21T01:01:25;100951.84;;;9.81;100.00
71165;BME280;58859;55.132;-1.586;2024-02-21T01:03:51;100950.13;;;9.32;100.00
71165;BME280;58859;55.132;-1.586;2024-02-21T01:06:19;100959.84;;;8.70;100.00
71165;BME280;58859;55.132;-1.586;2024-02-21T01:08:46;100947.00;;;8.98;100.00
71165;BME280;58859;55.132;-1.586;2024-02-21T01:11:12;100911.84;;;10.49;100.00
71165;BME280;58859;55.132;-1.586;2024-02-21T01:13:37;100880.47;;;10.60;100.00
71165;BME280;58859;55.132;-1.586;2024-02-21T01:16:03;100868.94;;;10.26;100.00
71165;BME280;58859;55.132;-1.586;2024-02-21T01:18:28;100872.56;;;9.67;100.00
71165;BME280;58859;55.132;-1.586;2024-02-21T01:20:54;100904.75;;;9.27;100.00
71165;BME280;58859;55.132;-1.586;2024-02-21T01:23:19;100923.00;;;9.06;100.00
71165;BME280;58859;55.132;-1.586;2024-02-21T01:25:44;100927.41;;;9.15;100.00
71165;BME280;58859;55.132;-1.586;2024-02-21T01:28:10;100915.59;;;9.60;100.00
71165;BME280;58859;55.132;-1.586;2024-02-21T01:30:35;100911.91;;;9.72;100.00
71165;BME280;58859;55.132;-1.586;2024-02-21T01:33:01;100903.31;;;9.81;100.00
71165;BME280;58859;55.132;-1.586;2024-02-21T01:35:26;100898.66;;;9.75;100.00
71165;BME280;58859;55.132;-1.586;2024-02-21T01:37:52;100917.91;;;9.54;100.00
71165;BME280;58859;55.132;-1.586;2024-02-21T01:40:17;100898.19;;;8.73;100.00
71165;BME280;58859;55.132;-1.586;2024-02-21T01:42:43;100903.63;;;9.19;100.00
71165;BME280;58859;55.132;-1.586;2024-02-21T01:45:08;100868.28;;;9.18;100.00
71165;BME280;58859;55.132;-1.586;2024-02-21T01:47:35;100863.13;;;9.57;100.00
71165;BME280;58859;55.132;-1.586;2024-02-21T01:50:01;100877.41;;;9.13;100.00
71165;BME280;58859;55.132;-1.586;2024-02-21T01:52:28;100904.31;;;8.72;100.00
71165;BME280;58859;55.132;-1.586;2024-02-21T01:54:54;100908.72;;;8.81;100.00
71165;BME280;58859;55.132;-1.586;2024-02-21T01:57:20;100889.28;;;8.96;100.00
71165;BME280;58859;55.132;-1.586;2024-02-21T01:59:45;100861.53;;;8.97;100.00
71165;BME280;58859;55.132;-1.586;2024-02-21T02:02:11;100826.56;;;8.91;100.00
71165;BME280;58859;55.132;-1.586;2024-02-21T02:04:38;100827.41;;;8.92;100.00
71165;BME280;58859;55.132;-1.586;2024-02-21T02:07:06;100839.75;;;8.59;100.00
71165;BME280;58859;55.132;-1.586;2024-02-21T02:09:32;100847.63;;;8.88;100.00
71165;BME280;58859;55.132;-1.586;2024-02-21T02:11:57;100817.06;;;9.11;100.00
71165;BME280;58859;55.132;-1.586;2024-02-21T02:14:25;100809.97;;;9.51;100.00
71165;BME280;58859;55.132;-1.586;2024-02-21T02:16:50;100808.41;;;8.91;100.00
71165;BME280;58859;55.132;-1.586;2024-02-21T02:19:15;100818.63;;;8.34;100.00
71165;BME280;58859;55.132;-1.586;2024-02-21T02:21:46;100807.56;;;8.72;100.00
71165;BME280;58859;55.132;-1.586;2024-02-21T02:24:19;100810.97;;;8.72;100.00
71165;BME280;58859;55.132;-1.586;2024-02-21T02:26:45;100793.28;;;8.47;100.00
71165;BME280;58859;55.132;-1.586;2024-02-21T02:29:10;100766.78;;;8.83;100.00
71165;BME280;58859;55.132;-1.586;2024-02-21T02:31:36;100770.22;;;9.03;100.00
71165;BME280;58859;55.132;-1.586;2024-02-21T02:34:03;100772.38;;;8.79;100.00
71165;BME280;58859;55.132;-1.586;2024-02-21T02:36:31;100766.53;;;8.96;100.00
71165;BME280;58859;55.132;-1.586;2024-02-21T02:38:56;100755.75;;;8.91;100.00
71165;BME280;58859;55.132;-1.586;2024-02-21T02:41:22;100723.66;;;9.30;100.00
71165;BME280;58859;55.132;-1.586;2024-02-21T02:43:47;100735.81;;;8.82;100.00
71165;BME280;58859;55.132;-1.586;2024-02-21T02:46:12;100756.38;;;7.94;100.00
71165;BME280;58859;55.132;-1.586;2024-02-21T02:48:38;100758.56;;;7.68;100.00
71165;BME280;58859;55.132;-1.586;2024-02-21T02:51:04;100722.34;;;8.38;100.00
71165;BME280;58859;55.132;-1.586;2024-02-21T02:53:29;100717.75;;;8.61;100.00
71165;BME280;58859;55.132;-1.586;2024-02-21T02:55:54;100714.69;;;8.27;100.00
71165;BME280;58859;55.132;-1.586;2024-02-21T02:58:20;100702.91;;;8.23;100.00
71165;BME280;58859;55.132;-1.586;2024-02-21T03:00:46;100705.69;;;8.31;100.00
71165;BME280;58859;55.132;-1.586;2024-02-21T03:03:11;100699.94;;;7.88;100.00
71165;BME280;58859;55.132;-1.586;2024-02-21T03:05:36;100672.72;;;7.73;100.00
71165;BME280;58859;55.132;-1.586;2024-02-21T03:08:02;100665.34;;;8.38;100.00
71165;BME280;58859;55.132;-1.586;2024-02-21T03:10:32;100659.34;;;8.47;100.00
71165;BME280;58859;55.132;-1.586;2024-02-21T03:12:57;100653.41;;;8.17;100.00
71165;BME280;58859;55.132;-1.586;2024-02-21T03:15:24;100666.31;;;7.97;100.00
71165;BME280;58859;55.132;-1.586;2024-02-21T03:17:49;100647.59;;;8.43;100.00
71165;BME280;58859;55.132;-1.586;2024-02-21T03:20:15;100643.13;;;8.45;100.00
71165;BME280;58859;55.132;-1.586;2024-02-21T03:22:41;100644.66;;;8.77;100.00
71165;BME280;58859;55.132;-1.586;2024-02-21T03:25:07;100625.50;;;8.49;100.00
71165;BME280;58859;55.132;-1.586;2024-02-21T03:27:33;100609.00;;;8.88;100.00
71165;BME280;58859;55.132;-1.586;2024-02-21T03:29:58;100584.44;;;8.25;100.00
71165;BME280;58859;55.132;-1.586;2024-02-21T03:32:24;100607.16;;;8.12;100.00
71165;BME280;58859;55.132;-1.586;2024-02-21T03:34:49;100586.50;;;8.31;100.00
71165;BME280;58859;55.132;-1.586;2024-02-21T03:37:15;100570.94;;;8.41;100.00
71165;BME280;58859;55.132;-1.586;2024-02-21T03:39:41;100563.00;;;8.23;100.00
71165;BME280;58859;55.132;-1.586;2024-02-21T03:42:06;100562.63;;;8.37;100.00
71165;BME280;58859;55.132;-1.586;2024-02-21T03:44:31;100552.56;;;8.53;100.00
71165;BME280;58859;55.132;-1.586;2024-02-21T03:46:58;100545.25;;;8.95;100.00
71165;BME280;58859;55.132;-1.586;2024-02-21T03:49:23;100529.72;;;8.76;100.00
71165;BME280;58859;55.132;-1.586;2024-02-21T03:51:49;100524.44;;;8.68;100.00
71165;BME280;58859;55.132;-1.586;2024-02-21T03:54:14;100529.91;;;8.55;100.00
71165;BME280;58859;55.132;-1.586;2024-02-21T03:56:40;100509.09;;;8.84;100.00
71165;BME280;58859;55.132;-1.586;2024-02-21T03:59:07;100510.38;;;8.51;100.00
71165;BME280;58859;55.132;-1.586;2024-02-21T04:01:34;100502.91;;;8.48;100.00
71165;BME280;58859;55.132;-1.586;2024-02-21T04:03:59;100490.13;;;8.74;100.00
71165;BME280;58859;55.132;-1.586;2024-02-21T04:06:25;100471.75;;;8.68;100.00
71165;BME280;58859;55.132;-1.586;2024-02-21T04:08:50;100456.63;;;9.00;100.00
71165;BME280;58859;55.132;-1.586;2024-02-21T04:11:16;100455.19;;;9.60;100.00
71165;BME280;58859;55.132;-1.586;2024-02-21T04:13:42;100435.38;;;9.41;100.00
71165;BME280;58859;55.132;-1.586;2024-02-21T04:16:08;100437.16;;;8.86;100.00
71165;BME280;58859;55.132;-1.586;2024-02-21T04:18:33;100443.84;;;9.43;100.00
71165;BME280;58859;55.132;-1.586;2024-02-21T04:20:59;100423.22;;;9.59;100.00
71165;BME280;58859;55.132;-1.586;2024-02-21T04:23:24;100420.94;;;9.39;100.00
71165;BME280;58859;55.132;-1.586;2024-02-21T04:25:49;100396.19;;;8.90;100.00
71165;BME280;58859;55.132;-1.586;2024-02-21T04:28:15;100413.13;;;9.39;100.00
71165;BME280;58859;55.132;-1.586;2024-02-21T04:30:40;100381.03;;;9.57;100.00
71165;BME280;58859;55.132;-1.586;2024-02-21T04:33:07;100390.59;;;9.39;100.00
71165;BME280;58859;55.132;-1.586;2024-02-21T04:35:32;100383.31;;;8.98;100.00
71165;BME280;58859;55.132;-1.586;2024-02-21T04:37:58;100395.97;;;9.10;100.00
71165;BME280;58859;55.132;-1.586;2024-02-21T04:40:23;100381.63;;;9.51;100.00
71165;BME280;58859;55.132;-1.586;2024-02-21T04:42:48;100378.50;;;9.30;100.00
71165;BME280;58859;55.132;-1.586;2024-02-21T04:45:14;100368.03;;;9.22;100.00
71165;BME280;58859;55.132;-1.586;2024-02-21T04:47:39;100357.38;;;9.25;100.00
71165;BME280;58859;55.132;-1.586;2024-02-21T04:50:05;100352.31;;;9.23;100.00
71165;BME280;58859;55.132;-1.586;2024-02-21T04:52:31;100345.53;;;8.95;100.00
71165;BME280;58859;55.132;-1.586;2024-02-21T04:54:56;100336.34;;;9.89;100.00
71165;BME280;58859;55.132;-1.586;2024-02-21T04:57:22;100295.94;;;9.69;100.00
71165;BME280;58859;55.132;-1.586;2024-02-21T04:59:47;100313.09;;;9.62;100.00
71165;BME280;58859;55.132;-1.586;2024-02-21T05:02:13;100292.28;;;9.36;100.00
71165;BME280;58859;55.132;-1.586;2024-02-21T05:04:39;100281.81;;;9.28;100.00
71165;BME280;58859;55.132;-1.586;2024-02-21T05:07:05;100255.88;;;9.54;100.00
71165;BME280;58859;55.132;-1.586;2024-02-21T05:09:31;100235.28;;;9.52;100.00
71165;BME280;58859;55.132;-1.586;2024-02-21T05:11:56;100229.06;;;9.71;100.00
71165;BME280;58859;55.132;-1.586;2024-02-21T05:14:24;100224.75;;;9.54;100.00
71165;BME280;58859;55.132;-1.586;2024-02-21T05:16:49;100232.66;;;9.27;100.00
71165;BME280;58859;55.132;-1.586;2024-02-21T05:19:15;100230.19;;;9.68;100.00
71165;BME280;58859;55.132;-1.586;2024-02-21T05:21:40;100218.13;;;9.85;100.00
71165;BME280;58859;55.132;-1.586;2024-02-21T05:24:06;100200.81;;;9.68;100.00
71165;BME280;58859;55.132;-1.586;2024-02-21T05:26:31;100209.59;;;9.23;100.00
71165;BME280;58859;55.132;-1.586;2024-02-21T05:28:57;100184.91;;;10.05;100.00
71165;BME280;58859;55.132;-1.586;2024-02-21T05:31:24;100168.81;;;10.27;100.00
71165;BME280;58859;55.132;-1.586;2024-02-21T05:33:49;100174.84;;;10.35;100.00
71165;BME280;58859;55.132;-1.586;2024-02-21T05:36:15;100165.69;;;9.81;100.00
71165;BME280;58859;55.132;-1.586;2024-02-21T05:38:40;100168.94;;;10.17;100.00
71165;BME280;58859;55.132;-1.586;2024-02-21T05:41:06;100151.63;;;10.00;100.00
71165;BME280;58859;55.132;-1.586;2024-02-21T05:43:31;100155.47;;;9.88;100.00
71165;BME280;58859;55.132;-1.586;2024-02-21T05:45:57;100140.63;;;9.64;100.00
71165;BME280;58859;55.132;-1.586;2024-02-21T05:48:23;100141.63;;;9.79;100.00
71165;BME280;58859;55.132;-1.586;2024-02-21T05:50:49;100141.31;;;9.82;100.00
71165;BME280;58859;55.132;-1.586;2024-02-21T05:53:14;100120.47;;;9.58;100.00
71165;BME280;58859;55.132;-1.586;2024-02-21T05:55:40;100121.47;;;9.73;100.00
71165;BME280;58859;55.132;-1.586;2024-02-21T05:58:06;100115.84;;;9.78;100.00
71165;BME280;58859;55.132;-1.586;2024-02-21T06:00:32;100104.38;;;9.97;100.00
71165;BME280;58859;55.132;-1.586;2024-02-21T06:02:57;100096.25;;;10.00;100.00
71165;BME280;58859;55.132;-1.586;2024-02-21T06:05:23;100089.03;;;9.69;100.00
71165;BME280;58859;55.132;-1.586;2024-02-21T06:07:49;100089.28;;;10.00;100.00
71165;BME280;58859;55.132;-1.586;2024-02-21T06:10:14;100070.16;;;10.09;100.00
71165;BME280;58859;55.132;-1.586;2024-02-21T06:12:40;100057.16;;;10.01;100.00
71165;BME280;58859;55.132;-1.586;2024-02-21T06:15:06;100043.84;;;10.04;100.00
71165;BME280;58859;55.132;-1.586;2024-02-21T06:17:31;100031.72;;;10.13;100.00
71165;BME280;58859;55.132;-1.586;2024-02-21T06:19:57;100015.47;;;10.51;100.00
71165;BME280;58859;55.132;-1.586;2024-02-21T06:22:22;100009.78;;;10.15;100.00
71165;BME280;58859;55.132;-1.586;2024-02-21T06:24:47;99995.06;;;9.82;100.00
71165;BME280;58859;55.132;-1.586;2024-02-21T06:27:13;99954.97;;;9.68;100.00
71165;BME280;58859;55.132;-1.586;2024-02-21T06:29:41;99976.94;;;9.90;100.00
71165;BME280;58859;55.132;-1.586;2024-02-21T06:32:07;99968.16;;;9.99;100.00
71165;BME280;58859;55.132;-1.586;2024-02-21T06:34:32;99954.69;;;10.12;100.00
71165;BME280;58859;55.132;-1.586;2024-02-21T06:36:57;99945.97;;;10.13;100.00
71165;BME280;58859;55.132;-1.586;2024-02-21T06:39:23;99929.38;;;9.81;100.00
71165;BME280;58859;55.132;-1.586;2024-02-21T06:41:49;99925.97;;;9.89;100.00
71165;BME280;58859;55.132;-1.586;2024-02-21T06:44:16;99920.28;;;10.26;100.00
71165;BME280;58859;55.132;-1.586;2024-02-21T06:46:41;99911.34;;;10.36;100.00
71165;BME280;58859;55.132;-1.586;2024-02-21T06:49:07;99907.94;;;10.12;100.00
71165;BME280;58859;55.132;-1.586;2024-02-21T06:51:32;99903.22;;;10.31;100.00
71165;BME280;58859;55.132;-1.586;2024-02-21T06:53:59;99889.75;;;10.28;100.00
71165;BME280;58859;55.132;-1.586;2024-02-21T06:56:25;99880.31;;;10.43;100.00
71165;BME280;58859;55.132;-1.586;2024-02-21T06:58:57;99876.53;;;10.54;100.00
71165;BME280;58859;55.132;-1.586;2024-02-21T07:01:26;99836.72;;;10.53;100.00
71165;BME280;58859;55.132;-1.586;2024-02-21T07:03:51;99852.09;;;11.02;100.00
71165;BME280;58859;55.132;-1.586;2024-02-21T07:06:17;99848.22;;;10.59;100.00
71165;BME280;58859;55.132;-1.586;2024-02-21T07:08:42;99834.50;;;10.81;100.00
71165;BME280;58859;55.132;-1.586;2024-02-21T07:11:07;99827.16;;;11.61;100.00
71165;BME280;58859;55.132;-1.586;2024-02-21T07:13:33;99810.50;;;11.24;100.00
71165;BME280;58859;55.132;-1.586;2024-02-21T07:15:58;99805.34;;;11.39;100.00
71165;BME280;58859;55.132;-1.586;2024-02-21T07:18:24;99788.41;;;10.98;100.00
71165;BME280;58859;55.132;-1.586;2024-02-21T07:20:52;99776.38;;;10.66;100.00
71165;BME280;58859;55.132;-1.586;2024-02-21T07:23:18;99761.53;;;10.44;100.00
71165;BME280;58859;55.132;-1.586;2024-02-21T07:25:44;99762.84;;;10.78;100.00
71165;BME280;58859;55.132;-1.586;2024-02-21T07:28:09;99748.59;;;10.66;100.00
71165;BME280;58859;55.132;-1.586;2024-02-21T07:30:35;99735.59;;;10.66;100.00
71165;BME280;58859;55.132;-1.586;2024-02-21T07:33:00;99731.84;;;12.03;100.00
71165;BME280;58859;55.132;-1.586;2024-02-21T07:35:26;99732.66;;;12.04;100.00
71165;BME280;58859;55.132;-1.586;2024-02-21T07:37:51;99702.47;;;12.81;100.00
71165;BME280;58859;55.132;-1.586;2024-02-21T07:40:17;99688.91;;;12.92;100.00
71165;BME280;58859;55.132;-1.586;2024-02-21T07:42:43;99692.78;;;13.45;100.00
71165;BME280;58859;55.132;-1.586;2024-02-21T07:45:09;99684.00;;;14.95;100.00
71165;BME280;58859;55.132;-1.586;2024-02-21T07:47:35;99673.81;;;14.46;100.00
71165;BME280;58859;55.132;-1.586;2024-02-21T07:50:01;99676.72;;;14.97;100.00
71165;BME280;58859;55.132;-1.586;2024-02-21T07:52:27;99658.81;;;15.20;100.00
71165;BME280;58859;55.132;-1.586;2024-02-21T07:54:53;99636.16;;;14.34;100.00
71165;BME280;58859;55.132;-1.586;2024-02-21T07:57:18;99627.97;;;14.83;100.00
71165;BME280;58859;55.132;-1.586;2024-02-21T07:59:44;99614.84;;;16.44;100.00
71165;BME280;58859;55.132;-1.586;2024-02-21T08:02:09;99610.59;;;11.05;100.00
71165;BME280;58859;55.132;-1.586;2024-02-21T08:04:35;99603.66;;;10.83;100.00
71165;BME280;58859;55.132;-1.586;2024-02-21T08:07:00;99590.03;;;10.81;100.00
71165;BME280;58859;55.132;-1.586;2024-02-21T08:09:28;99573.84;;;11.23;100.00
71165;BME280;58859;55.132;-1.586;2024-02-21T08:11:54;99569.75;;;10.91;100.00
71165;BME280;58859;55.132;-1.586;2024-02-21T08:14:20;99556.66;;;10.84;100.00
71165;BME280;58859;55.132;-1.586;2024-02-21T08:16:45;99536.31;;;11.46;100.00
71165;BME280;58859;55.132;-1.586;2024-02-21T08:19:11;99542.28;;;10.74;100.00
71165;BME280;58859;55.132;-1.586;2024-02-21T08:21:37;99522.41;;;11.25;100.00
71165;BME280;58859;55.132;-1.586;2024-02-21T08:24:03;99510.09;;;11.04;100.00
71165;BME280;58859;55.132;-1.586;2024-02-21T08:26:28;99503.81;;;10.98;100.00
71165;BME280;58859;55.132;-1.586;2024-02-21T08:28:56;99485.63;;;10.84;100.00
71165;BME280;58859;55.132;-1.586;2024-02-21T08:31:24;99483.63;;;10.71;100.00
71165;BME280;58859;55.132;-1.586;2024-02-21T08:33:53;99468.81;;;11.30;100.00
71165;BME280;58859;55.132;-1.586;2024-02-21T08:36:19;99460.06;;;11.02;100.00
71165;BME280;58859;55.132;-1.586;2024-02-21T08:38:45;99454.22;;;11.00;100.00
71165;BME280;58859;55.132;-1.586;2024-02-21T08:41:11;99447.22;;;11.15;100.00
71165;BME280;58859;55.132;-1.586;2024-02-21T08:43:37;99447.59;;;10.98;100.00
71165;BME280;58859;55.132;-1.586;2024-02-21T08:46:03;99438.88;;;10.90;100.00
71165;BME280;58859;55.132;-1.586;2024-02-21T08:48:28;99418.47;;;11.38;100.00
71165;BME280;58859;55.132;-1.586;2024-02-21T08:50:53;99417.56;;;10.95;100.00
71165;BME280;58859;55.132;-1.586;2024-02-21T08:53:19;99411.16;;;11.48;100.00
71165;BME280;58859;55.132;-1.586;2024-02-21T08:55:45;99387.28;;;11.23;100.00
71165;BME280;58859;55.132;-1.586;2024-02-21T08:58:11;99389.81;;;11.02;100.00
71165;BME280;58859;55.132;-1.586;2024-02-21T09:00:36;99391.25;;;10.90;100.00
71165;BME280;58859;55.132;-1.586;2024-02-21T09:03:02;99384.34;;;11.33;100.00
71165;BME280;58859;55.132;-1.586;2024-02-21T09:05:28;99369.34;;;11.14;100.00
71165;BME280;58859;55.132;-1.586;2024-02-21T09:07:53;99363.53;;;10.97;100.00
71165;BME280;58859;55.132;-1.586;2024-02-21T09:10:19;99354.41;;;11.01;100.00
71165;BME280;58859;55.132;-1.586;2024-02-21T09:12:44;99343.69;;;11.11;100.00
71165;BME280;58859;55.132;-1.586;2024-02-21T09:15:10;99336.47;;;11.13;100.00
71165;BME280;58859;55.132;-1.586;2024-02-21T09:17:35;99327.13;;;10.97;100.00
71165;BME280;58859;55.132;-1.586;2024-02-21T09:20:01;99329.81;;;11.04;100.00
71165;BME280;58859;55.132;-1.586;2024-02-21T09:22:29;99301.31;;;11.17;100.00
71165;BME280;58859;55.132;-1.586;2024-02-21T09:24:54;99308.72;;;10.98;100.00
71165;BME280;58859;55.132;-1.586;2024-02-21T09:27:20;99300.38;;;11.24;100.00
71165;BME280;58859;55.132;-1.586;2024-02-21T09:29:45;99293.06;;;11.13;100.00
71165;BME280;58859;55.132;-1.586;2024-02-21T09:32:11;99285.81;;;11.30;100.00
71165;BME280;58859;55.132;-1.586;2024-02-21T09:34:37;99278.91;;;10.80;100.00
71165;BME280;58859;55.132;-1.586;2024-02-21T09:37:03;99257.19;;;11.30;100.00
71165;BME280;58859;55.132;-1.586;2024-02-21T09:39:28;99251.19;;;11.29;100.00
71165;BME280;58859;55.132;-1.586;2024-02-21T09:41:59;99247.09;;;10.99;100.00
71165;BME280;58859;55.132;-1.586;2024-02-21T09:44:28;99233.59;;;11.31;100.00
71165;BME280;58859;55.132;-1.586;2024-02-21T09:47:02;99235.38;;;11.31;100.00
71165;BME280;58859;55.132;-1.586;2024-02-21T09:49:32;99220.94;;;11.07;100.00
71165;BME280;58859;55.132;-1.586;2024-02-21T09:52:00;99213.09;;;11.01;100.00
71165;BME280;58859;55.132;-1.586;2024-02-21T09:54:28;99204.09;;;11.24;100.00
71165;BME280;58859;55.132;-1.586;2024-02-21T09:56:54;99205.50;;;11.27;100.00
71165;BME280;58859;55.132;-1.586;2024-02-21T09:59:19;99212.34;;;10.85;100.00
71165;BME280;58859;55.132;-1.586;2024-02-21T10:01:45;99191.72;;;11.26;100.00
71165;BME280;58859;55.132;-1.586;2024-02-21T10:04:13;99167.19;;;11.14;100.00
71165;BME280;58859;55.132;-1.586;2024-02-21T10:06:39;99162.31;;;11.32;100.00
71165;BME280;58859;55.132;-1.586;2024-02-21T10:09:07;99140.13;;;11.09;100.00
71165;BME280;58859;55.132;-1.586;2024-02-21T10:11:33;99151.16;;;11.73;100.00
71165;BME280;58859;55.132;-1.586;2024-02-21T10:16:33;99138.34;;;10.88;100.00
71165;BME280;58859;55.132;-1.586;2024-02-21T10:18:59;99115.97;;;10.93;100.00
71165;BME280;58859;55.132;-1.586;2024-02-21T10:21:25;99098.53;;;10.87;100.00
71165;BME280;58859;55.132;-1.586;2024-02-21T10:23:51;99099.16;;;10.89;100.00
71165;BME280;58859;55.132;-1.586;2024-02-21T10:26:18;99085.66;;;10.79;100.00
71165;BME280;58859;55.132;-1.586;2024-02-21T10:28:44;99070.00;;;10.73;100.00
71165;BME280;58859;55.132;-1.586;2024-02-21T10:31:11;99066.19;;;10.96;100.00
71165;BME280;58859;55.132;-1.586;2024-02-21T10:33:38;99060.53;;;10.65;100.00
71165;BME280;58859;55.132;-1.586;2024-02-21T10:36:10;99041.41;;;10.73;100.00
71165;BME280;58859;55.132;-1.586;2024-02-21T10:38:37;99024.56;;;10.96;100.00
71165;BME280;58859;55.132;-1.586;2024-02-21T10:41:04;99016.72;;;10.90;100.00
71165;BME280;58859;55.132;-1.586;2024-02-21T10:43:38;99026.00;;;10.71;100.00
71165;BME280;58859;55.132;-1.586;2024-02-21T10:46:08;98990.69;;;10.90;100.00
71165;BME280;58859;55.132;-1.586;2024-02-21T10:48:44;98990.31;;;10.93;100.00
71165;BME280;58859;55.132;-1.586;2024-02-21T10:56:32;98960.94;;;10.92;100.00
71165;BME280;58859;55.132;-1.586;2024-02-21T10:59:05;98956.22;;;11.16;100.00
71165;BME280;58859;55.132;-1.586;2024-02-21T11:01:32;98959.50;;;11.31;100.00
71165;BME280;58859;55.132;-1.586;2024-02-21T11:04:08;98954.06;;;10.85;100.00
71165;BME280;58859;55.132;-1.586;2024-02-21T11:06:38;98948.72;;;10.93;100.00
71165;BME280;58859;55.132;-1.586;2024-02-21T11:09:05;98933.09;;;10.86;100.00
71165;BME280;58859;55.132;-1.586;2024-02-21T11:11:34;98933.16;;;11.00;100.00
71165;BME280;58859;55.132;-1.586;2024-02-21T11:14:10;98910.94;;;11.58;100.00
71165;BME280;58859;55.132;-1.586;2024-02-21T11:16:40;98921.88;;;10.86;100.00
71165;BME280;58859;55.132;-1.586;2024-02-21T11:19:08;98911.19;;;11.09;100.00
71165;BME280;58859;55.132;-1.586;2024-02-21T11:21:35;98888.13;;;10.99;100.00
71165;BME280;58859;55.132;-1.586;2024-02-21T11:24:04;98882.63;;;10.74;100.00
71165;BME280;58859;55.132;-1.586;2024-02-21T11:26:30;98868.03;;;10.80;100.00
71165;BME280;58859;55.132;-1.586;2024-02-21T11:28:57;98866.34;;;11.07;100.00
71165;BME280;58859;55.132;-1.586;2024-02-21T11:31:23;98846.75;;;11.11;100.00
71165;BME280;58859;55.132;-1.586;2024-02-21T11:33:48;98832.94;;;11.17;100.00
71165;BME280;58859;55.132;-1.586;2024-02-21T11:36:26;98835.25;;;10.85;100.00
71165;BME280;58859;55.132;-1.586;2024-02-21T11:38:52;98817.09;;;10.92;100.00
71165;BME280;58859;55.132;-1.586;2024-02-21T11:41:19;98782.06;;;10.94;100.00
71165;BME280;58859;55.132;-1.586;2024-02-21T11:43:49;98812.78;;;11.32;100.00
71165;BME280;58859;55.132;-1.586;2024-02-21T11:46:15;98799.50;;;11.07;100.00
71165;BME280;58859;55.132;-1.586;2024-02-21T11:48:41;98812.53;;;11.20;100.00
71165;BME280;58859;55.132;-1.586;2024-02-21T11:51:09;98756.91;;;11.41;100.00
71165;BME280;58859;55.132;-1.586;2024-02-21T11:53:35;98781.53;;;11.38;100.00
71165;BME280;58859;55.132;-1.586;2024-02-21T11:56:00;98771.13;;;11.51;100.00
71165;BME280;58859;55.132;-1.586;2024-02-21T11:58:26;98758.31;;;11.57;100.00
71165;BME280;58859;55.132;-1.586;2024-02-21T12:00:52;98735.09;;;11.09;100.00
71165;BME280;58859;55.132;-1.586;2024-02-21T12:03:17;98751.13;;;11.72;100.00
71165;BME280;58859;55.132;-1.586;2024-02-21T12:05:43;98747.84;;;10.91;100.00
71165;BME280;58859;55.132;-1.586;2024-02-21T12:08:08;98733.09;;;11.31;100.00
71165;BME280;58859;55.132;-1.586;2024-02-21T12:10:35;98712.84;;;11.79;100.00
71165;BME280;58859;55.132;-1.586;2024-02-21T12:13:10;98711.06;;;11.60;100.00
71165;BME280;58859;55.132;-1.586;2024-02-21T12:15:38;98715.03;;;11.55;100.00
71165;BME280;58859;55.132;-1.586;2024-02-21T12:18:05;98692.44;;;11.69;100.00
71165;BME280;58859;55.132;-1.586;2024-02-21T12:20:31;98691.03;;;11.60;100.00
71165;BME280;58859;55.132;-1.586;2024-02-21T12:23:00;98682.69;;;12.16;100.00
71165;BME280;58859;55.132;-1.586;2024-02-21T12:25:25;98683.41;;;11.59;100.00
71165;BME280;58859;55.132;-1.586;2024-02-21T12:27:52;98669.53;;;11.97;100.00
71165;BME280;58859;55.132;-1.586;2024-02-21T12:30:18;98673.38;;;11.88;100.00
71165;BME280;58859;55.132;-1.586;2024-02-21T12:32:45;98653.00;;;12.17;100.00
71165;BME280;58859;55.132;-1.586;2024-02-21T12:35:11;98644.09;;;11.86;100.00
71165;BME280;58859;55.132;-1.586;2024-02-21T12:37:36;98634.72;;;12.23;100.00
71165;BME280;58859;55.132;-1.586;2024-02-21T12:40:09;98635.75;;;12.22;100.00
71165;BME280;58859;55.132;-1.586;2024-02-21T12:42:35;98643.50;;;11.84;100.00